sensor_id;sensor_type;location;lat;lon;timestamp;pressure;altitude;pressure_sealevel;temperature;humidity
64115;BME280;62188;35.640;139.748;2022-10-16T00:01:43;101980.87;;;24.06;41.17
64115;BME280;62188;35.640;139.748;2022-10-16T00:04:09;101977.96;;;24.22;40.99
64115;BME280;62188;35.640;139.748;2022-10-16T00:06:33;101975.37;;;24.29;40.85
64115;BME280;62188;35.640;139.748;2022-10-16T00:08:59;101973.93;;;24.38;40.79
64115;BME280;62188;35.640;139.748;2022-10-16T00:11:26;101976.00;;;24.27;40.87
64115;BME280;62188;35.640;139.748;2022-10-16T00:13:52;101975.23;;;24.28;40.66
64115;BME280;62188;35.640;139.748;2022-10-16T00:16:18;101974.38;;;24.35;40.72
64115;BME280;62188;35.640;139.748;2022-10-16T00:18:41;101973.72;;;24.54;40.59
64115;BME280;62188;35.640;139.748;2022-10-16T00:21:09;101974.46;;;24.59;40.69
64115;BME280;62188;35.640;139.748;2022-10-16T00:23:32;101975.42;;;24.63;40.81
64115;BME280;62188;35.640;139.748;2022-10-16T00:25:59;101976.05;;;24.40;40.90
64115;BME280;62188;35.640;139.748;2022-10-16T00:28:22;101973.10;;;24.65;40.71
64115;BME280;62188;35.640;139.748;2022-10-16T00:30:47;101973.53;;;24.59;40.56
64115;BME280;62188;35.640;139.748;2022-10-16T00:33:13;101973.15;;;24.31;40.34
64115;BME280;62188;35.640;139.748;2022-10-16T00:35:39;101970.59;;;24.47;40.53
64115;BME280;62188;35.640;139.748;2022-10-16T00:38:04;101966.47;;;24.50;40.73
64115;BME280;62188;35.640;139.748;2022-10-16T00:40:30;101967.73;;;24.06;40.67
64115;BME280;62188;35.640;139.748;2022-10-16T00:42:55;101967.00;;;24.47;40.59
64115;BME280;62188;35.640;139.748;2022-10-16T00:45:20;101964.15;;;24.28;40.84
64115;BME280;62188;35.640;139.748;2022-10-16T00:47:46;101964.65;;;24.36;40.71
64115;BME280;62188;35.640;139.748;2022-10-16T00:50:18;101960.12;;;24.60;40.87
64115;BME280;62188;35.640;139.748;2022-10-16T00:52:37;101964.50;;;24.32;41.39
64115;BME280;62188;35.640;139.748;2022-10-16T00:55:03;101962.62;;;24.54;43.40
64115;BME280;62188;35.640;139.748;2022-10-16T00:57:27;101959.86;;;24.51;42.36
64115;BME280;62188;35.640;139.748;2022-10-16T00:59:54;101963.10;;;24.65;43.89
64115;BME280;62188;35.640;139.748;2022-10-16T01:02:18;101959.04;;;24.86;44.07
64115;BME280;62188;35.640;139.748;2022-10-16T01:04:47;101955.48;;;25.05;42.30
64115;BME280;62188;35.640;139.748;2022-10-16T01:07:16;101955.55;;;24.82;42.21
64115;BME280;62188;35.640;139.748;2022-10-16T01:09:41;101949.76;;;24.80;41.91
64115;BME280;62188;35.640;139.748;2022-10-16T01:12:06;101950.41;;;24.75;41.57
64115;BME280;62188;35.640;139.748;2022-10-16T01:14:32;101948.36;;;24.68;41.76
64115;BME280;62188;35.640;139.748;2022-10-16T01:16:55;101946.20;;;24.84;41.76
64115;BME280;62188;35.640;139.748;2022-10-16T01:19:21;101946.08;;;24.52;41.96
64115;BME280;62188;35.640;139.748;2022-10-16T01:21:44;101942.79;;;24.74;41.66
64115;BME280;62188;35.640;139.748;2022-10-16T01:24:15;101940.60;;;24.71;41.95
64115;BME280;62188;35.640;139.748;2022-10-16T01:26:43;101938.64;;;24.50;42.18
64115;BME280;62188;35.640;139.748;2022-10-16T01:29:03;101938.38;;;24.64;41.78
64115;BME280;62188;35.640;139.748;2022-10-16T01:31:26;101934.59;;;24.80;41.72
64115;BME280;62188;35.640;139.748;2022-10-16T01:33:54;101931.53;;;24.88;41.61
64115;BME280;62188;35.640;139.748;2022-10-16T01:36:16;101928.07;;;24.78;41.34
64115;BME280;62188;35.640;139.748;2022-10-16T01:38:39;101926.74;;;25.13;40.90
64115;BME280;62188;35.640;139.748;2022-10-16T01:41:09;101922.55;;;25.13;40.54
64115;BME280;62188;35.640;139.748;2022-10-16T01:43:33;101922.75;;;24.83;40.33
64115;BME280;62188;35.640;139.748;2022-10-16T01:45:56;101920.20;;;25.12;40.65
64115;BME280;62188;35.640;139.748;2022-10-16T01:48:21;101916.34;;;24.95;40.78
64115;BME280;62188;35.640;139.748;2022-10-16T01:50:52;101912.16;;;25.06;40.69
64115;BME280;62188;35.640;139.748;2022-10-16T01:53:13;101908.62;;;25.10;40.49
64115;BME280;62188;35.640;139.748;2022-10-16T01:55:42;101906.12;;;25.15;40.37
64115;BME280;62188;35.640;139.748;2022-10-16T01:58:04;101904.69;;;25.15;40.28
64115;BME280;62188;35.640;139.748;2022-10-16T02:00:29;101899.42;;;25.13;40.08
64115;BME280;62188;35.640;139.748;2022-10-16T02:02:54;101895.52;;;25.11;40.00
64115;BME280;62188;35.640;139.748;2022-10-16T02:05:25;101891.57;;;25.07;39.98
64115;BME280;62188;35.640;139.748;2022-10-16T02:07:45;101889.52;;;25.03;40.22
64115;BME280;62188;35.640;139.748;2022-10-16T02:10:11;101886.76;;;25.06;41.14
64115;BME280;62188;35.640;139.748;2022-10-16T02:12:38;101884.32;;;25.09;40.62
64115;BME280;62188;35.640;139.748;2022-10-16T02:15:01;101879.47;;;25.19;40.56
64115;BME280;62188;35.640;139.748;2022-10-16T02:17:28;101876.25;;;25.33;39.82
64115;BME280;62188;35.640;139.748;2022-10-16T02:19:54;101872.77;;;25.44;39.87
64115;BME280;62188;35.640;139.748;2022-10-16T02:22:21;101869.32;;;25.56;39.83
64115;BME280;62188;35.640;139.748;2022-10-16T02:24:49;101868.04;;;25.64;39.75
64115;BME280;62188;35.640;139.748;2022-10-16T02:27:13;101867.45;;;25.47;39.62
64115;BME280;62188;35.640;139.748;2022-10-16T02:29:38;101862.35;;;25.67;39.63
64115;BME280;62188;35.640;139.748;2022-10-16T02:32:03;101861.73;;;26.08;39.06
64115;BME280;62188;35.640;139.748;2022-10-16T02:34:27;101857.10;;;26.29;38.93
64115;BME280;62188;35.640;139.748;2022-10-16T02:36:51;101852.87;;;26.00;38.95
64115;BME280;62188;35.640;139.748;2022-10-16T02:39:17;101850.04;;;26.35;38.65
64115;BME280;62188;35.640;139.748;2022-10-16T02:41:41;101845.04;;;26.21;38.69
64115;BME280;62188;35.640;139.748;2022-10-16T02:44:07;101843.54;;;26.29;38.56
64115;BME280;62188;35.640;139.748;2022-10-16T02:46:32;101839.48;;;26.43;38.48
64115;BME280;62188;35.640;139.748;2022-10-16T02:48:57;101836.10;;;26.42;38.18
64115;BME280;62188;35.640;139.748;2022-10-16T02:51:23;101829.07;;;26.35;38.35
64115;BME280;62188;35.640;139.748;2022-10-16T02:53:48;101825.79;;;26.47;38.46
64115;BME280;62188;35.640;139.748;2022-10-16T02:56:13;101821.81;;;26.50;38.28
64115;BME280;62188;35.640;139.748;2022-10-16T02:58:39;101815.50;;;26.54;38.26
64115;BME280;62188;35.640;139.748;2022-10-16T03:01:04;101814.51;;;26.66;38.54
64115;BME280;62188;35.640;139.748;2022-10-16T03:03:30;101807.28;;;26.36;38.35
64115;BME280;62188;35.640;139.748;2022-10-16T03:05:55;101804.82;;;26.42;38.44
64115;BME280;62188;35.640;139.748;2022-10-16T03:08:20;101804.49;;;26.46;38.08
64115;BME280;62188;35.640;139.748;2022-10-16T03:10:46;101801.09;;;26.70;38.05
64115;BME280;62188;35.640;139.748;2022-10-16T03:13:11;101797.43;;;26.36;38.01
64115;BME280;62188;35.640;139.748;2022-10-16T03:15:36;101794.79;;;26.50;38.15
64115;BME280;62188;35.640;139.748;2022-10-16T03:18:02;101792.44;;;26.38;38.28
64115;BME280;62188;35.640;139.748;2022-10-16T03:20:27;101790.72;;;26.33;38.21
64115;BME280;62188;35.640;139.748;2022-10-16T03:22:53;101787.54;;;26.22;38.55
64115;BME280;62188;35.640;139.748;2022-10-16T03:25:17;101783.05;;;26.28;38.62
64115;BME280;62188;35.640;139.748;2022-10-16T03:27:42;101778.04;;;26.44;38.57
64115;BME280;62188;35.640;139.748;2022-10-16T03:30:09;101771.55;;;26.63;38.44
64115;BME280;62188;35.640;139.748;2022-10-16T03:32:34;101770.24;;;26.76;38.68
64115;BME280;62188;35.640;139.748;2022-10-16T03:34:59;101770.45;;;26.92;38.24
64115;BME280;62188;35.640;139.748;2022-10-16T03:37:24;101767.53;;;27.19;38.07
64115;BME280;62188;35.640;139.748;2022-10-16T03:39:50;101762.87;;;27.27;37.54
64115;BME280;62188;35.640;139.748;2022-10-16T03:42:15;101756.84;;;27.27;36.65
64115;BME280;62188;35.640;139.748;2022-10-16T03:44:40;101755.43;;;27.52;36.60
64115;BME280;62188;35.640;139.748;2022-10-16T03:47:05;101750.85;;;27.47;36.90
64115;BME280;62188;35.640;139.748;2022-10-16T03:49:31;101747.87;;;28.12;36.50
64115;BME280;62188;35.640;139.748;2022-10-16T03:51:56;101745.75;;;28.31;35.97
64115;BME280;62188;35.640;139.748;2022-10-16T03:54:22;101738.46;;;28.59;35.56
64115;BME280;62188;35.640;139.748;2022-10-16T03:56:47;101735.09;;;28.32;35.54
64115;BME280;62188;35.640;139.748;2022-10-16T03:59:13;101737.09;;;27.98;35.11
64115;BME280;62188;35.640;139.748;2022-10-16T04:01:38;101732.47;;;27.78;35.59
64115;BME280;62188;35.640;139.748;2022-10-16T04:04:04;101730.43;;;27.73;35.92
64115;BME280;62188;35.640;139.748;2022-10-16T04:06:29;101729.50;;;27.92;35.83
64115;BME280;62188;35.640;139.748;2022-10-16T04:08:54;101729.44;;;27.56;36.17
64115;BME280;62188;35.640;139.748;2022-10-16T04:11:19;101724.29;;;27.39;36.31
64115;BME280;62188;35.640;139.748;2022-10-16T04:13:44;101718.93;;;27.71;35.96
64115;BME280;62188;35.640;139.748;2022-10-16T04:16:10;101716.71;;;28.00;35.90
64115;BME280;62188;35.640;139.748;2022-10-16T04:18:35;101715.01;;;28.01;35.67
64115;BME280;62188;35.640;139.748;2022-10-16T04:21:04;101713.03;;;28.39;35.24
64115;BME280;62188;35.640;139.748;2022-10-16T04:23:26;101711.75;;;28.30;35.19
64115;BME280;62188;35.640;139.748;2022-10-16T04:25:52;101708.22;;;28.75;35.05
64115;BME280;62188;35.640;139.748;2022-10-16T04:28:16;101708.65;;;28.41;34.98
64115;BME280;62188;35.640;139.748;2022-10-16T04:30:42;101705.41;;;28.12;35.80
64115;BME280;62188;35.640;139.748;2022-10-16T04:33:08;101701.81;;;28.12;35.73
64115;BME280;62188;35.640;139.748;2022-10-16T04:35:32;101701.06;;;27.86;35.97
64115;BME280;62188;35.640;139.748;2022-10-16T04:37:59;101703.08;;;27.72;36.44
64115;BME280;62188;35.640;139.748;2022-10-16T04:40:23;101706.22;;;27.30;36.57
64115;BME280;62188;35.640;139.748;2022-10-16T04:42:48;101703.20;;;27.32;36.69
64115;BME280;62188;35.640;139.748;2022-10-16T04:45:13;101702.58;;;27.14;36.97
64115;BME280;62188;35.640;139.748;2022-10-16T04:47:39;101702.76;;;27.16;37.30
64115;BME280;62188;35.640;139.748;2022-10-16T04:50:05;101701.11;;;27.12;37.33
64115;BME280;62188;35.640;139.748;2022-10-16T04:52:30;101699.81;;;27.03;36.85
64115;BME280;62188;35.640;139.748;2022-10-16T04:54:55;101698.61;;;26.97;37.33
64115;BME280;62188;35.640;139.748;2022-10-16T04:57:20;101699.65;;;26.82;37.58
64115;BME280;62188;35.640;139.748;2022-10-16T04:59:45;101698.97;;;27.05;37.71
64115;BME280;62188;35.640;139.748;2022-10-16T05:02:11;101704.16;;;26.86;37.35
64115;BME280;62188;35.640;139.748;2022-10-16T05:04:36;101707.28;;;26.39;36.98
64115;BME280;62188;35.640;139.748;2022-10-16T05:07:02;101701.35;;;26.38;37.45
64115;BME280;62188;35.640;139.748;2022-10-16T05:09:27;101698.06;;;26.24;37.96
64115;BME280;62188;35.640;139.748;2022-10-16T05:11:52;101697.08;;;26.20;38.04
64115;BME280;62188;35.640;139.748;2022-10-16T05:14:18;101695.37;;;26.13;37.89
64115;BME280;62188;35.640;139.748;2022-10-16T05:16:44;101695.04;;;26.01;38.03
64115;BME280;62188;35.640;139.748;2022-10-16T05:19:09;101694.79;;;26.49;38.84
64115;BME280;62188;35.640;139.748;2022-10-16T05:21:34;101693.26;;;26.23;40.20
64115;BME280;62188;35.640;139.748;2022-10-16T05:24:00;101691.03;;;26.25;38.93
64115;BME280;62188;35.640;139.748;2022-10-16T05:26:24;101691.47;;;25.94;38.50
64115;BME280;62188;35.640;139.748;2022-10-16T05:28:50;101698.13;;;26.31;38.21
64115;BME280;62188;35.640;139.748;2022-10-16T05:31:15;101696.25;;;26.20;38.30
64115;BME280;62188;35.640;139.748;2022-10-16T05:33:40;101697.86;;;25.55;38.77
64115;BME280;62188;35.640;139.748;2022-10-16T05:36:07;101692.53;;;25.72;38.88
64115;BME280;62188;35.640;139.748;2022-10-16T05:38:31;101694.71;;;25.39;39.01
64115;BME280;62188;35.640;139.748;2022-10-16T05:40:56;101695.44;;;25.55;39.09
64115;BME280;62188;35.640;139.748;2022-10-16T05:43:21;101697.74;;;25.50;39.41
64115;BME280;62188;35.640;139.748;2022-10-16T05:45:55;101696.01;;;25.24;39.88
64115;BME280;62188;35.640;139.748;2022-10-16T05:48:12;101701.33;;;25.46;39.53
64115;BME280;62188;35.640;139.748;2022-10-16T05:50:37;101698.09;;;25.67;38.81
64115;BME280;62188;35.640;139.748;2022-10-16T05:53:02;101701.46;;;25.59;39.42
64115;BME280;62188;35.640;139.748;2022-10-16T05:55:28;101705.27;;;25.59;39.65
64115;BME280;62188;35.640;139.748;2022-10-16T05:57:55;101709.12;;;25.51;40.09
64115;BME280;62188;35.640;139.748;2022-10-16T06:00:19;101710.18;;;25.22;39.90
64115;BME280;62188;35.640;139.748;2022-10-16T06:02:44;101707.90;;;25.34;40.02
64115;BME280;62188;35.640;139.748;2022-10-16T06:05:09;101701.64;;;25.40;40.09
64115;BME280;62188;35.640;139.748;2022-10-16T06:07:35;101699.24;;;25.45;40.19
64115;BME280;62188;35.640;139.748;2022-10-16T06:10:00;101701.54;;;25.40;40.48
64115;BME280;62188;35.640;139.748;2022-10-16T06:12:26;101704.79;;;25.57;40.62
64115;BME280;62188;35.640;139.748;2022-10-16T06:14:51;101705.92;;;25.31;40.76
64115;BME280;62188;35.640;139.748;2022-10-16T06:17:16;101704.80;;;25.25;41.03
64115;BME280;62188;35.640;139.748;2022-10-16T06:19:41;101702.53;;;25.21;41.21
64115;BME280;62188;35.640;139.748;2022-10-16T06:22:07;101702.52;;;25.10;41.48
64115;BME280;62188;35.640;139.748;2022-10-16T06:24:32;101700.19;;;25.14;41.55
64115;BME280;62188;35.640;139.748;2022-10-16T06:26:58;101700.60;;;25.15;41.60
64115;BME280;62188;35.640;139.748;2022-10-16T06:29:23;101704.53;;;25.20;41.60
64115;BME280;62188;35.640;139.748;2022-10-16T06:31:49;101702.78;;;25.20;41.68
64115;BME280;62188;35.640;139.748;2022-10-16T06:34:13;101701.66;;;25.22;41.57
64115;BME280;62188;35.640;139.748;2022-10-16T06:36:40;101705.60;;;25.22;41.67
64115;BME280;62188;35.640;139.748;2022-10-16T06:39:05;101706.26;;;25.27;41.51
64115;BME280;62188;35.640;139.748;2022-10-16T06:41:30;101705.92;;;25.26;41.39
64115;BME280;62188;35.640;139.748;2022-10-16T06:43:55;101709.93;;;25.43;41.34
64115;BME280;62188;35.640;139.748;2022-10-16T06:46:22;101710.27;;;25.10;41.53
64115;BME280;62188;35.640;139.748;2022-10-16T06:48:45;101713.54;;;25.39;41.53
64115;BME280;62188;35.640;139.748;2022-10-16T06:51:12;101712.20;;;25.08;41.47
64115;BME280;62188;35.640;139.748;2022-10-16T06:53:38;101711.74;;;25.05;41.32
64115;BME280;62188;35.640;139.748;2022-10-16T06:56:07;101708.72;;;25.00;41.37
64115;BME280;62188;35.640;139.748;2022-10-16T06:58:27;101705.32;;;25.17;41.40
64115;BME280;62188;35.640;139.748;2022-10-16T07:00:56;101705.36;;;25.15;41.36
64115;BME280;62188;35.640;139.748;2022-10-16T07:03:17;101707.81;;;25.17;41.41
64115;BME280;62188;35.640;139.748;2022-10-16T07:05:43;101707.33;;;24.88;41.47
64115;BME280;62188;35.640;139.748;2022-10-16T07:08:09;101706.40;;;25.12;41.55
64115;BME280;62188;35.640;139.748;2022-10-16T07:10:35;101707.19;;;25.14;41.68
64115;BME280;62188;35.640;139.748;2022-10-16T07:12:59;101706.42;;;24.89;41.68
64115;BME280;62188;35.640;139.748;2022-10-16T07:15:25;101707.02;;;24.87;41.85
64115;BME280;62188;35.640;139.748;2022-10-16T07:17:50;101708.45;;;25.37;41.96
64115;BME280;62188;35.640;139.748;2022-10-16T07:20:15;101707.06;;;25.10;42.04
64115;BME280;62188;35.640;139.748;2022-10-16T07:22:40;101703.95;;;24.79;42.27
64115;BME280;62188;35.640;139.748;2022-10-16T07:25:07;101702.07;;;24.81;42.40
64115;BME280;62188;35.640;139.748;2022-10-16T07:27:31;101704.25;;;25.11;42.44
64115;BME280;62188;35.640;139.748;2022-10-16T07:29:57;101702.32;;;25.09;42.55
64115;BME280;62188;35.640;139.748;2022-10-16T07:32:23;101700.97;;;24.77;42.76
64115;BME280;62188;35.640;139.748;2022-10-16T07:34:47;101701.78;;;24.76;42.81
64115;BME280;62188;35.640;139.748;2022-10-16T07:37:12;101693.80;;;24.97;42.62
64115;BME280;62188;35.640;139.748;2022-10-16T07:39:38;101690.21;;;24.90;42.43
64115;BME280;62188;35.640;139.748;2022-10-16T07:42:03;101686.74;;;24.91;42.33
64115;BME280;62188;35.640;139.748;2022-10-16T07:44:29;101685.03;;;24.94;42.16
64115;BME280;62188;35.640;139.748;2022-10-16T07:46:53;101690.00;;;24.67;42.09
64115;BME280;62188;35.640;139.748;2022-10-16T07:49:19;101689.24;;;24.86;42.18
64115;BME280;62188;35.640;139.748;2022-10-16T07:51:45;101690.01;;;25.04;42.29
64115;BME280;62188;35.640;139.748;2022-10-16T07:54:10;101686.02;;;24.80;42.42
64115;BME280;62188;35.640;139.748;2022-10-16T07:56:35;101686.83;;;24.84;42.45
64115;BME280;62188;35.640;139.748;2022-10-16T07:59:01;101681.78;;;24.58;42.48
64115;BME280;62188;35.640;139.748;2022-10-16T08:01:26;101678.59;;;24.57;42.46
64115;BME280;62188;35.640;139.748;2022-10-16T08:03:52;101678.22;;;24.81;42.54
64115;BME280;62188;35.640;139.748;2022-10-16T08:06:18;101678.73;;;24.77;42.55
64115;BME280;62188;35.640;139.748;2022-10-16T08:08:42;101677.98;;;24.51;42.65
64115;BME280;62188;35.640;139.748;2022-10-16T08:11:07;101677.64;;;24.96;42.65
64115;BME280;62188;35.640;139.748;2022-10-16T08:13:33;101680.52;;;24.53;42.69
64115;BME280;62188;35.640;139.748;2022-10-16T08:15:58;101682.41;;;25.04;42.64
64115;BME280;62188;35.640;139.748;2022-10-16T08:18:24;101679.29;;;24.72;42.68
64115;BME280;62188;35.640;139.748;2022-10-16T08:20:54;101681.71;;;24.68;42.69
64115;BME280;62188;35.640;139.748;2022-10-16T08:23:15;101683.13;;;24.66;42.77
64115;BME280;62188;35.640;139.748;2022-10-16T08:25:41;101684.29;;;24.45;42.57
64115;BME280;62188;35.640;139.748;2022-10-16T08:28:05;101692.56;;;24.70;42.57
64115;BME280;62188;35.640;139.748;2022-10-16T08:30:31;101691.59;;;24.45;42.51
64115;BME280;62188;35.640;139.748;2022-10-16T08:32:56;101688.58;;;24.64;42.59
64115;BME280;62188;35.640;139.748;2022-10-16T08:35:22;101684.82;;;24.61;42.68
64115;BME280;62188;35.640;139.748;2022-10-16T08:37:47;101686.39;;;24.77;42.76
64115;BME280;62188;35.640;139.748;2022-10-16T08:40:18;101688.50;;;24.75;42.81
64115;BME280;62188;35.640;139.748;2022-10-16T08:45:15;101697.29;;;24.62;43.10
64115;BME280;62188;35.640;139.748;2022-10-16T08:47:38;101704.12;;;24.40;43.00
64115;BME280;62188;35.640;139.748;2022-10-16T08:49:58;101707.17;;;24.88;43.19
64115;BME280;62188;35.640;139.748;2022-10-16T08:52:19;101709.82;;;24.65;43.35
64115;BME280;62188;35.640;139.748;2022-10-16T08:54:47;101708.27;;;24.61;43.44
64115;BME280;62188;35.640;139.748;2022-10-16T08:57:13;101707.81;;;24.43;43.42
64115;BME280;62188;35.640;139.748;2022-10-16T08:59:35;101706.33;;;24.28;43.48
64115;BME280;62188;35.640;139.748;2022-10-16T09:02:01;101709.76;;;24.35;43.48
64115;BME280;62188;35.640;139.748;2022-10-16T09:06:55;101712.95;;;24.48;43.10
64115;BME280;62188;35.640;139.748;2022-10-16T09:09:31;101708.85;;;24.74;43.22
64115;BME280;62188;35.640;139.748;2022-10-16T09:11:48;101712.96;;;24.68;43.04
64115;BME280;62188;35.640;139.748;2022-10-16T09:14:17;101721.65;;;24.66;43.19
64115;BME280;62188;35.640;139.748;2022-10-16T09:16:36;101710.08;;;24.41;43.40
64115;BME280;62188;35.640;139.748;2022-10-16T09:19:02;101711.93;;;24.70;43.50
64115;BME280;62188;35.640;139.748;2022-10-16T09:21:27;101715.62;;;24.96;43.26
64115;BME280;62188;35.640;139.748;2022-10-16T09:23:50;101718.56;;;24.71;43.29
64115;BME280;62188;35.640;139.748;2022-10-16T09:26:16;101727.44;;;24.65;43.47
64115;BME280;62188;35.640;139.748;2022-10-16T09:28:40;101722.28;;;24.88;43.62
64115;BME280;62188;35.640;139.748;2022-10-16T09:31:07;101716.19;;;24.94;43.64
64115;BME280;62188;35.640;139.748;2022-10-16T09:33:35;101718.47;;;24.97;43.60
64115;BME280;62188;35.640;139.748;2022-10-16T09:35:58;101719.83;;;24.72;43.65
64115;BME280;62188;35.640;139.748;2022-10-16T09:38:26;101716.64;;;24.50;43.67
64115;BME280;62188;35.640;139.748;2022-10-16T09:40:47;101717.25;;;24.50;43.56
64115;BME280;62188;35.640;139.748;2022-10-16T09:43:21;101713.34;;;24.75;43.50
64115;BME280;62188;35.640;139.748;2022-10-16T09:45:38;101713.11;;;24.49;43.53
64115;BME280;62188;35.640;139.748;2022-10-16T09:48:10;101710.06;;;24.73;43.56
64115;BME280;62188;35.640;139.748;2022-10-16T09:50:29;101711.75;;;24.71;43.49
64115;BME280;62188;35.640;139.748;2022-10-16T09:53:04;101714.21;;;24.65;43.32
64115;BME280;62188;35.640;139.748;2022-10-16T09:55:20;101713.23;;;24.56;43.55
64115;BME280;62188;35.640;139.748;2022-10-16T09:57:49;101717.53;;;24.57;43.60
64115;BME280;62188;35.640;139.748;2022-10-16T10:00:15;101716.95;;;24.76;43.50
64115;BME280;62188;35.640;139.748;2022-10-16T10:02:36;101716.09;;;24.73;43.65
64115;BME280;62188;35.640;139.748;2022-10-16T10:05:00;101714.11;;;24.21;43.76
64115;BME280;62188;35.640;139.748;2022-10-16T10:07:27;101713.94;;;24.42;43.78
64115;BME280;62188;35.640;139.748;2022-10-16T10:09:51;101716.02;;;24.66;43.67
64115;BME280;62188;35.640;139.748;2022-10-16T10:12:21;101718.85;;;24.48;43.53
64115;BME280;62188;35.640;139.748;2022-10-16T10:14:46;101715.85;;;24.54;43.50
64115;BME280;62188;35.640;139.748;2022-10-16T10:17:13;101708.46;;;24.56;43.60
64115;BME280;62188;35.640;139.748;2022-10-16T10:19:38;101702.23;;;24.54;43.56
64115;BME280;62188;35.640;139.748;2022-10-16T10:21:58;101704.35;;;24.55;43.53
64115;BME280;62188;35.640;139.748;2022-10-16T10:24:23;101695.54;;;24.55;43.52
64115;BME280;62188;35.640;139.748;2022-10-16T10:26:56;101688.17;;;24.57;43.40
64115;BME280;62188;35.640;139.748;2022-10-16T10:29:19;101681.71;;;24.60;43.41
64115;BME280;62188;35.640;139.748;2022-10-16T10:31:43;101683.36;;;24.62;43.52
64115;BME280;62188;35.640;139.748;2022-10-16T10:34:15;101690.03;;;24.58;43.63
64115;BME280;62188;35.640;139.748;2022-10-16T10:36:34;101693.56;;;24.30;43.78
64115;BME280;62188;35.640;139.748;2022-10-16T10:38:58;101691.23;;;24.57;43.86
64115;BME280;62188;35.640;139.748;2022-10-16T10:43:56;101698.54;;;24.72;43.87
64115;BME280;62188;35.640;139.748;2022-10-16T10:46:18;101700.59;;;24.68;43.74
64115;BME280;62188;35.640;139.748;2022-10-16T10:48:49;101697.19;;;24.82;43.76
64115;BME280;62188;35.640;139.748;2022-10-16T10:51:06;101697.56;;;24.40;43.73
64115;BME280;62188;35.640;139.748;2022-10-16T10:53:38;101701.42;;;24.69;43.53
64115;BME280;62188;35.640;139.748;2022-10-16T10:55:59;101707.87;;;24.47;43.07
64115;BME280;62188;35.640;139.748;2022-10-16T10:58:29;101704.06;;;24.71;42.93
64115;BME280;62188;35.640;139.748;2022-10-16T11:00:52;101704.88;;;24.72;42.92
64115;BME280;62188;35.640;139.748;2022-10-16T11:03:18;101702.75;;;24.71;42.77
64115;BME280;62188;35.640;139.748;2022-10-16T11:05:41;101698.82;;;24.49;42.76
64115;BME280;62188;35.640;139.748;2022-10-16T11:08:02;101702.43;;;24.76;42.89
64115;BME280;62188;35.640;139.748;2022-10-16T11:10:30;101706.81;;;24.58;42.88
64115;BME280;62188;35.640;139.748;2022-10-16T11:12:55;101707.53;;;24.78;42.80
64115;BME280;62188;35.640;139.748;2022-10-16T11:15:21;101705.19;;;24.82;42.88
64115;BME280;62188;35.640;139.748;2022-10-16T11:17:44;101703.34;;;24.82;42.82
64115;BME280;62188;35.640;139.748;2022-10-16T11:20:13;101698.46;;;24.89;42.67
64115;BME280;62188;35.640;139.748;2022-10-16T11:22:36;101696.60;;;24.69;42.67
64115;BME280;62188;35.640;139.748;2022-10-16T11:25:02;101696.18;;;24.71;42.74
64115;BME280;62188;35.640;139.748;2022-10-16T11:27:27;101694.53;;;25.20;42.77
64115;BME280;62188;35.640;139.748;2022-10-16T11:29:53;101691.54;;;24.68;42.80
64115;BME280;62188;35.640;139.748;2022-10-16T11:32:20;101688.19;;;24.48;42.73
64115;BME280;62188;35.640;139.748;2022-10-16T11:34:43;101689.98;;;24.77;42.71
64115;BME280;62188;35.640;139.748;2022-10-16T11:37:08;101699.30;;;24.88;42.82
64115;BME280;62188;35.640;139.748;2022-10-16T11:39:30;101694.16;;;24.90;43.88
64115;BME280;62188;35.640;139.748;2022-10-16T11:41:56;101691.56;;;24.77;44.08
64115;BME280;62188;35.640;139.748;2022-10-16T11:46:51;101688.88;;;24.84;44.14
64115;BME280;62188;35.640;139.748;2022-10-16T11:49:14;101690.49;;;24.88;43.62
64115;BME280;62188;35.640;139.748;2022-10-16T11:51:39;101693.14;;;24.94;43.95
64115;BME280;62188;35.640;139.748;2022-10-16T11:54:08;101695.09;;;24.98;43.50
64115;BME280;62188;35.640;139.748;2022-10-16T11:56:27;101699.15;;;24.93;43.59
64115;BME280;62188;35.640;139.748;2022-10-16T11:58:57;101707.95;;;24.91;43.60
64115;BME280;62188;35.640;139.748;2022-10-16T12:01:21;101708.18;;;24.95;43.30
64115;BME280;62188;35.640;139.748;2022-10-16T12:03:46;101704.41;;;24.74;43.24
64115;BME280;62188;35.640;139.748;2022-10-16T12:06:14;101702.19;;;25.04;43.04
64115;BME280;62188;35.640;139.748;2022-10-16T12:08:35;101698.01;;;25.29;42.87
64115;BME280;62188;35.640;139.748;2022-10-16T12:11:07;101688.76;;;24.82;42.92
64115;BME280;62188;35.640;139.748;2022-10-16T12:13:32;101680.88;;;25.09;42.77
64115;BME280;62188;35.640;139.748;2022-10-16T12:15:49;101679.80;;;25.09;42.68
64115;BME280;62188;35.640;139.748;2022-10-16T12:18:22;101685.92;;;25.09;42.70
64115;BME280;62188;35.640;139.748;2022-10-16T12:20:40;101695.33;;;25.34;42.67
64115;BME280;62188;35.640;139.748;2022-10-16T12:23:06;101696.02;;;25.10;42.52
64115;BME280;62188;35.640;139.748;2022-10-16T12:25:33;101694.83;;;25.12;42.28
64115;BME280;62188;35.640;139.748;2022-10-16T12:27:59;101693.33;;;25.11;42.38
64115;BME280;62188;35.640;139.748;2022-10-16T12:30:23;101691.70;;;25.12;42.27